Time;durP1;ratioP1;P1;durP2;ratioP2;P2;SDS_P1;SDS_P2;PMS_P1;PMS_P2;Temp;Humidity;BMP_temperature;BMP_pressure;BME280_temperature;BME280_humidity;BME280_pressure;Samples;Min_cycle;Max_cycle;Signal;HPM_P1;HPM_P2
2023/07/31 00:01:14;;;;;;;22.13;7.97;;;;;;;15.88;100.00;100966.69;5070902;28;20028;-68
2023/07/31 00:03:40;;;;;;;16.55;6.70;;;;;;;15.81;100.00;100958.69;5070319;28;20032;-68
2023/07/31 00:06:05;;;;;;;21.75;8.82;;;;;;;15.80;100.00;100950.84;5069202;28;20115;-69
2023/07/31 00:08:30;;;;;;;23.52;6.80;;;;;;;15.78;100.00;100953.78;5070142;28;20492;-68
2023/07/31 00:10:56;;;;;;;17.98;6.60;;;;;;;15.89;100.00;100968.31;5070202;28;20042;-68
2023/07/31 00:13:21;;;;;;;19.00;6.30;;;;;;;15.87;100.00;100965.84;5070128;28;20071;-68
2023/07/31 00:15:46;;;;;;;21.85;6.43;;;;;;;15.89;100.00;100969.13;5070068;28;20056;-68
2023/07/31 00:18:13;;;;;;;19.45;6.50;;;;;;;15.89;100.00;100962.94;5068682;28;20068;-68
2023/07/31 00:20:38;;;;;;;21.25;7.53;;;;;;;15.88;100.00;100966.69;5070072;28;20036;-68
2023/07/31 00:23:03;;;;;;;19.33;7.22;;;;;;;15.85;100.00;100961.75;5069821;28;20543;-68
2023/07/31 00:25:29;;;;;;;18.15;6.40;;;;;;;15.88;100.00;100956.75;5069936;28;20051;-68
2023/07/31 00:27:54;;;;;;;16.63;6.90;;;;;;;15.87;100.00;100957.78;5069967;28;20036;-68
2023/07/31 00:30:19;;;;;;;16.30;6.35;;;;;;;15.87;100.00;100949.72;5069841;28;20028;-68
2023/07/31 00:32:45;;;;;;;21.05;7.43;;;;;;;15.86;100.00;100964.22;5068059;28;20033;-68
2023/07/31 00:35:10;;;;;;;20.65;7.55;;;;;;;15.81;100.00;100944.44;5069735;28;20090;-68
2023/07/31 00:37:35;;;;;;;20.67;7.68;;;;;;;15.85;100.00;100959.91;5069699;28;20097;-68
2023/07/31 00:40:03;;;;;;;19.70;8.13;;;;;;;15.86;100.00;100949.94;5070011;28;20024;-68
2023/07/31 00:42:28;;;;;;;15.15;6.22;;;;;;;15.86;100.00;100953.47;5069469;28;20033;-68
2023/07/31 00:44:54;;;;;;;17.90;5.32;;;;;;;15.86;100.00;100952.66;5069562;28;20035;-68
2023/07/31 00:47:19;;;;;;;20.55;5.22;;;;;;;15.86;100.00;100955.34;5069555;28;20077;-68
2023/07/31 00:49:45;;;;;;;15.90;5.97;;;;;;;15.84;100.00;100949.34;5068026;28;20041;-68
2023/07/31 00:52:11;;;;;;;14.32;4.82;;;;;;;15.86;100.00;100955.34;5069271;28;20119;-68
2023/07/31 00:54:36;;;;;;;16.42;4.93;;;;;;;15.86;100.00;100952.66;5069708;28;20033;-68
2023/07/31 00:57:02;;;;;;;15.65;6.05;;;;;;;15.84;100.00;100944.78;5069325;28;20036;-68
2023/07/31 00:59:27;;;;;;;17.17;6.40;;;;;;;15.84;100.00;100943.97;5069293;28;20119;-68
2023/07/31 01:01:53;;;;;;;18.50;6.18;;;;;;;15.87;100.00;100944.31;5068022;28;20115;-68
2023/07/31 01:04:19;;;;;;;18.70;6.70;;;;;;;15.86;100.00;100939.19;5069347;28;20032;-68
2023/07/31 01:07:06;;;;;;;19.65;5.43;;;;;;;15.85;100.00;100940.22;5069276;28;20059;-68
2023/07/31 01:10:02;;;;;;;17.67;5.75;;;;;;;15.85;100.00;100937.53;5069111;28;20119;-68
2023/07/31 01:12:30;;;;;;;13.10;4.95;;;;;;;15.82;100.00;100933.44;5069073;28;20297;-68
2023/07/31 01:15:10;;;;;;;16.20;5.35;;;;;;;15.83;100.00;100937.78;5069091;28;20475;-68
2023/07/31 01:17:36;;;;;;;18.42;6.60;;;;;;;15.81;100.00;100933.69;5069166;28;20028;-68
2023/07/31 01:20:05;;;;;;;16.40;4.90;;;;;;;15.82;100.00;100936.13;5069142;28;20024;-68
2023/07/31 01:22:45;;;;;;;13.95;5.13;;;;;;;15.82;100.00;100927.25;5068883;28;20036;-68
2023/07/31 01:25:46;;;;;;;16.23;4.40;;;;;;;15.83;100.00;100928.91;5068840;28;20029;-68
2023/07/31 01:28:34;;;;;;;17.05;4.55;;;;;;;15.80;100.00;100929.34;5046189;28;20029;-68
2023/07/31 01:31:02;;;;;;;16.83;3.50;;;;;;;15.82;100.00;100932.63;5067439;28;20544;-68
2023/07/31 01:33:28;;;;;;;15.25;6.07;;;;;;;15.81;100.00;100939.06;5068900;28;20106;-68
2023/07/31 01:35:55;;;;;;;14.00;4.72;;;;;;;15.81;100.00;100939.88;5068655;28;20033;-68
2023/07/31 01:38:22;;;;;;;12.30;3.65;;;;;;;15.72;100.00;100925.94;5068857;28;20044;-68
2023/07/31 01:40:52;;;;;;;16.73;4.88;;;;;;;15.81;100.00;100931.81;5068903;28;20520;-68
2023/07/31 01:43:17;;;;;;;12.25;4.15;;;;;;;15.80;100.00;100930.19;5069282;28;20079;-68
2023/07/31 01:45:43;;;;;;;15.10;5.00;;;;;;;15.82;100.00;100927.25;5072886;28;20056;-68
2023/07/31 01:48:08;;;;;;;12.40;4.97;;;;;;;15.79;100.00;100925.84;5073061;28;20119;-68
2023/07/31 01:50:33;;;;;;;13.63;3.25;;;;;;;15.82;100.00;100928.06;5072847;28;20032;-68
2023/07/31 01:52:59;;;;;;;16.95;5.50;;;;;;;15.81;100.00;100917.56;5054639;28;20036;-67
2023/07/31 01:55:24;;;;;;;9.82;4.20;;;;;;;15.80;100.00;100923.97;5071507;28;20083;-68
2023/07/31 01:57:49;;;;;;;12.35;4.07;;;;;;;15.80;100.00;100927.50;5072344;28;20028;-68
2023/07/31 02:00:15;;;;;;;11.75;4.05;;;;;;;15.74;100.00;100918.44;5072401;28;20078;-68
2023/07/31 02:02:40;;;;;;;17.15;4.32;;;;;;;15.78;100.00;100918.81;5072514;28;20038;-68
2023/07/31 02:05:06;;;;;;;16.50;4.38;;;;;;;15.74;100.00;100918.44;5072743;28;20032;-68
2023/07/31 02:07:31;;;;;;;15.65;3.85;;;;;;;15.75;100.00;100905.84;5072273;28;20503;-68
2023/07/31 02:09:57;;;;;;;12.27;4.22;;;;;;;15.76;100.00;100915.53;5072526;28;20036;-68
2023/07/31 02:12:22;;;;;;;13.60;4.10;;;;;;;15.75;100.00;100913.91;5072304;28;20179;-68
2023/07/31 02:14:47;;;;;;;12.75;3.88;;;;;;;15.71;100.00;100908.16;5072563;28;20036;-68
2023/07/31 02:17:13;;;;;;;14.45;5.45;;;;;;;15.72;100.00;100906.31;5072737;28;20025;-68
2023/07/31 02:19:38;;;;;;;18.60;5.40;;;;;;;15.72;100.00;100901.75;5072197;28;20029;-68
2023/07/31 02:22:04;;;;;;;13.18;4.38;;;;;;;15.71;100.00;100894.72;5072585;28;20056;-68
2023/07/31 02:24:29;;;;;;;15.15;5.82;;;;;;;15.67;100.00;100882.75;5072273;28;20479;-68
2023/07/31 02:26:54;;;;;;;15.35;4.45;;;;;;;15.68;100.00;100892.44;5072218;28;20029;-68
2023/07/31 02:29:20;;;;;;;20.17;4.32;;;;;;;15.62;100.00;100885.31;5072092;28;20040;-68
2023/07/31 02:31:45;;;;;;;13.43;4.40;;;;;;;15.68;100.00;100894.31;5072233;28;20040;-68
2023/07/31 02:34:10;;;;;;;14.82;4.30;;;;;;;15.65;100.00;100887.53;5071889;28;20029;-68
2023/07/31 02:36:36;;;;;;;9.70;3.67;;;;;;;15.65;100.00;100882.16;5072158;28;20448;-68
2023/07/31 02:39:01;;;;;;;16.20;3.90;;;;;;;15.65;100.00;100887.53;5071896;28;20040;-68
2023/07/31 02:41:26;;;;;;;14.68;3.90;;;;;;;15.62;100.00;100893.38;5071826;28;20032;-68
2023/07/31 02:43:52;;;;;;;19.10;4.72;;;;;;;15.61;100.00;100872.09;5071922;28;20483;-68
2023/07/31 02:46:19;;;;;;;14.25;4.65;;;;;;;15.60;100.00;100882.03;5071918;28;20060;-68
2023/07/31 02:48:45;;;;;;;16.70;5.40;;;;;;;15.60;100.00;100879.34;5071838;28;20031;-68
2023/07/31 02:51:10;;;;;;;9.13;3.63;;;;;;;15.53;100.00;100865.16;5071573;28;20403;-68
2023/07/31 02:53:35;;;;;;;13.48;4.80;;;;;;;15.49;100.00;100858.63;5071661;28;20040;-68
2023/07/31 02:56:01;;;;;;;15.52;5.57;;;;;;;15.46;100.00;100857.22;5071386;28;20551;-68
2023/07/31 02:58:26;;;;;;;14.55;4.90;;;;;;;15.54;100.00;100864.94;5071972;28;20968;-68
2023/07/31 03:00:51;;;;;;;11.30;5.88;;;;;;;15.53;100.00;100875.91;5071816;28;20033;-68
2023/07/31 03:03:17;;;;;;;16.65;5.18;;;;;;;15.55;100.00;100865.75;5071547;28;20028;-68
2023/07/31 03:05:42;;;;;;;13.70;4.57;;;;;;;15.51;100.00;100862.72;5071851;28;20384;-68
2023/07/31 03:08:07;;;;;;;9.77;3.22;;;;;;;15.52;100.00;100864.34;5071144;28;20044;-68
2023/07/31 03:10:33;;;;;;;13.45;4.00;;;;;;;15.54;100.00;100864.94;5071484;28;20028;-68
2023/07/31 03:12:58;;;;;;;18.85;5.75;;;;;;;15.54;100.00;100864.94;5071174;28;20110;-68
2023/07/31 03:15:24;;;;;;;25.50;7.40;;;;;;;15.54;100.00;100867.63;5071427;28;20479;-68
2023/07/31 03:17:49;;;;;;;14.07;4.28;;;;;;;15.51;100.00;100864.56;5071444;28;20131;-68
2023/07/31 03:20:14;;;;;;;14.07;5.20;;;;;;;15.47;100.00;100866.09;5069974;28;20588;-68
2023/07/31 03:22:40;;;;;;;10.80;5.22;;;;;;;15.51;100.00;100876.16;5071088;28;20035;-68
2023/07/31 03:25:05;;;;;;;17.48;4.60;;;;;;;15.48;100.00;100871.25;5071021;28;20549;-68
2023/07/31 03:27:31;;;;;;;17.35;5.05;;;;;;;15.51;100.00;100881.53;5071007;28;20376;-68
2023/07/31 03:29:56;;;;;;;16.27;5.03;;;;;;;15.49;100.00;100866.69;5071054;28;20024;-68
2023/07/31 03:32:22;;;;;;;15.02;4.63;;;;;;;15.50;100.00;100879.06;5071363;28;20042;-68
2023/07/31 03:34:47;;;;;;;13.77;5.25;;;;;;;15.49;100.00;100872.06;5070958;28;20475;-68
2023/07/31 03:37:12;;;;;;;19.48;4.80;;;;;;;15.47;100.00;100861.53;5070997;28;20068;-68
2023/07/31 03:39:38;;;;;;;12.73;4.85;;;;;;;15.50;100.00;100862.94;5070809;28;20020;-68
2023/07/31 03:42:03;;;;;;;20.90;5.45;;;;;;;15.50;100.00;100842.25;5070897;28;20036;-68
2023/07/31 03:44:28;;;;;;;10.20;3.30;;;;;;;15.52;100.00;100844.72;5070686;28;20097;-68
2023/07/31 03:46:54;;;;;;;18.95;4.53;;;;;;;15.54;100.00;100839.94;5070747;28;20046;-68
2023/07/31 03:49:19;;;;;;;17.48;4.80;;;;;;;15.54;100.00;100839.94;5069116;28;20442;-68
2023/07/31 03:51:45;;;;;;;14.20;4.63;;;;;;;15.54;100.00;100834.56;5070420;28;20028;-68
2023/07/31 03:54:10;;;;;;;11.77;4.85;;;;;;;15.54;100.00;100826.50;5070478;28;20036;-68
2023/07/31 03:56:35;;;;;;;16.67;4.20;;;;;;;15.57;100.00;100828.72;5070475;28;20025;-68
2023/07/31 03:59:01;;;;;;;12.30;4.80;;;;;;;15.58;100.00;100833.03;5070543;28;20074;-68
2023/07/31 04:01:26;;;;;;;13.60;4.22;;;;;;;15.59;100.00;100831.16;5070458;28;20074;-68
2023/07/31 04:03:52;;;;;;;13.60;4.18;;;;;;;15.59;100.00;100823.09;5070469;28;20021;-68
2023/07/31 04:06:18;;;;;;;11.02;3.97;;;;;;;15.61;100.00;100816.44;5069574;28;20029;-68
2023/07/31 04:08:44;;;;;;;16.92;5.15;;;;;;;15.63;100.00;100816.22;5070161;28;20060;-68
2023/07/31 04:11:10;;;;;;;14.35;6.07;;;;;;;15.63;100.00;100822.41;5070063;28;20047;-68
2023/07/31 04:13:35;;;;;;;16.25;5.35;;;;;;;15.66;100.00;100813.88;5070083;28;20149;-68
2023/07/31 04:16:00;;;;;;;10.93;3.55;;;;;;;15.71;100.00;100813.22;5069485;28;20028;-68
2023/07/31 04:18:26;;;;;;;16.58;4.15;;;;;;;15.73;100.00;100813.81;5068876;28;20024;-68
2023/07/31 04:20:51;;;;;;;14.48;4.88;;;;;;;15.75;100.00;100812.53;5067829;28;20124;-68
2023/07/31 04:23:17;;;;;;;14.77;3.58;;;;;;;15.74;100.00;100802.00;5068986;28;20060;-68
2023/07/31 04:25:42;;;;;;;13.02;4.85;;;;;;;15.78;100.00;100806.69;5068945;28;20150;-67
2023/07/31 04:28:07;;;;;;;14.15;5.57;;;;;;;15.81;100.00;100813.47;5068905;28;20123;-68
2023/07/31 04:30:33;;;;;;;13.98;4.50;;;;;;;15.82;100.00;100803.53;5068665;28;20490;-68
2023/07/31 04:32:58;;;;;;;13.23;4.05;;;;;;;15.84;100.00;100804.94;5069150;28;20062;-68
2023/07/31 04:35:24;;;;;;;12.18;3.95;;;;;;;15.86;100.00;100804.72;5069805;28;20032;-68
2023/07/31 04:37:49;;;;;;;11.20;3.50;;;;;;;15.88;100.00;100799.94;5069656;28;20399;-68
2023/07/31 04:40:16;;;;;;;11.30;3.40;;;;;;;15.89;100.00;100804.25;5069219;28;20036;-68
2023/07/31 04:42:41;;;;;;;14.73;4.88;;;;;;;15.93;100.00;100802.75;5050948;28;20028;-68
2023/07/31 04:45:08;;;;;;;15.05;4.25;;;;;;;15.95;100.00;100798.75;5068865;28;20055;-68
2023/07/31 04:47:34;;;;;;;13.82;4.32;;;;;;;15.92;100.00;100791.13;5069479;28;20039;-68
2023/07/31 04:49:59;;;;;;;13.13;4.30;;;;;;;15.92;100.00;100785.75;5069293;28;20032;-68
2023/07/31 04:52:24;;;;;;;11.07;4.25;;;;;;;15.92;100.00;100796.53;5067548;28;20046;-68
2023/07/31 04:54:50;;;;;;;11.95;3.72;;;;;;;15.93;100.00;100786.59;5069282;28;20036;-68
2023/07/31 04:57:15;;;;;;;13.55;4.25;;;;;;;15.92;100.00;100787.63;5069354;28;20434;-68
2023/07/31 04:59:40;;;;;;;19.08;6.00;;;;;;;15.92;100.00;100784.94;5069179;28;20033;-68
2023/07/31 05:02:07;;;;;;;13.38;4.68;;;;;;;15.93;100.00;100779.34;5068844;28;20063;-68
2023/07/31 05:04:33;;;;;;;12.70;4.55;;;;;;;15.95;100.00;100779.09;5068820;28;20043;-68
2023/07/31 05:06:58;;;;;;;12.00;4.38;;;;;;;15.94;100.00;100766.72;5068834;28;20040;-68
2023/07/31 05:09:23;;;;;;;12.52;3.90;;;;;;;15.97;100.00;100769.75;5069100;28;20028;-68
2023/07/31 05:11:49;;;;;;;17.20;4.28;;;;;;;16.01;100.00;100767.41;5068646;28;20048;-68
2023/07/31 05:14:15;;;;;;;13.82;4.68;;;;;;;16.03;100.00;100767.97;5068537;28;20028;-68
2023/07/31 05:16:41;;;;;;;13.25;4.38;;;;;;;16.05;100.00;100771.25;5068462;28;20025;-68
2023/07/31 05:19:06;;;;;;;13.88;4.15;;;;;;;16.03;100.00;100759.09;5068470;28;20037;-68
2023/07/31 05:21:32;;;;;;;12.82;4.43;;;;;;;16.08;100.00;100764.59;5068779;28;20032;-68
2023/07/31 05:23:57;;;;;;;18.50;5.72;;;;;;;16.08;100.00;100754.63;5069054;28;20070;-68
2023/07/31 05:26:23;;;;;;;10.27;4.57;;;;;;;16.07;100.00;100755.72;5068984;28;20048;-69
2023/07/31 05:28:48;;;;;;;13.48;5.68;;;;;;;16.07;100.00;100749.50;5068858;28;20035;-68
2023/07/31 05:31:14;;;;;;;11.30;5.13;;;;;;;16.09;100.00;100758.19;5067572;28;20049;-68
2023/07/31 05:33:39;;;;;;;14.82;6.60;;;;;;;16.08;100.00;100762.72;5068409;28;20075;-68
2023/07/31 05:36:05;;;;;;;13.18;5.32;;;;;;;16.07;100.00;100760.28;5068786;28;20060;-68
2023/07/31 05:38:30;;;;;;;9.32;4.55;;;;;;;15.98;100.00;100747.19;5068457;28;20033;-68
2023/07/31 05:40:55;;;;;;;9.43;4.20;;;;;;;16.03;100.00;100748.34;5068857;28;20383;-68
2023/07/31 05:43:21;;;;;;;11.20;3.70;;;;;;;16.04;100.00;100750.81;5068545;28;20033;-68
2023/07/31 05:45:47;;;;;;;10.68;4.35;;;;;;;16.02;100.00;100752.91;5068713;28;20063;-68
2023/07/31 05:48:12;;;;;;;12.63;4.57;;;;;;;15.95;100.00;100752.19;5069105;28;20047;-68
2023/07/31 05:50:39;;;;;;;9.88;3.90;;;;;;;15.89;100.00;100747.75;5068429;28;20035;-68
2023/07/31 05:53:05;;;;;;;11.52;3.85;;;;;;;15.87;100.00;100744.47;5068486;28;20083;-68
2023/07/31 05:55:30;;;;;;;6.75;2.80;;;;;;;15.81;100.00;100734.69;5068518;28;20032;-68
2023/07/31 05:57:56;;;;;;;7.93;3.78;;;;;;;15.78;100.00;100735.97;5068666;28;20060;-68
2023/07/31 06:00:22;;;;;;;9.75;3.88;;;;;;;15.77;100.00;100729.78;5068623;28;20056;-68
2023/07/31 06:02:48;;;;;;;7.80;3.85;;;;;;;15.77;100.00;100727.06;5068504;28;20028;-68
2023/07/31 06:05:13;;;;;;;6.07;3.10;;;;;;;15.75;100.00;100713.03;5068419;28;20029;-69
2023/07/31 06:07:38;;;;;;;5.75;2.60;;;;;;;15.73;100.00;100720.53;5068440;28;20499;-69
2023/07/31 06:10:05;;;;;;;7.22;2.92;;;;;;;15.72;100.00;100715.38;5068140;28;20035;-68
2023/07/31 06:12:32;;;;;;;5.85;2.92;;;;;;;15.73;100.00;100711.63;5066761;28;20044;-73
2023/07/31 06:14:57;;;;;;;6.97;3.35;;;;;;;15.75;100.00;100718.41;5066783;28;20407;-69
2023/07/31 06:17:22;;;;;;;8.85;3.42;;;;;;;15.77;100.00;100718.16;5067971;28;20036;-72
2023/07/31 06:19:49;;;;;;;6.50;3.40;;;;;;;15.77;100.00;100723.53;5042868;28;20132;-69
2023/07/31 06:22:14;;;;;;;6.32;3.03;;;;;;;15.77;100.00;100721.69;5027766;28;20038;-69
2023/07/31 06:24:39;;;;;;;4.43;2.22;;;;;;;15.78;100.00;100719.81;5028191;28;20033;-66
2023/07/31 06:27:05;;;;;;;4.28;2.40;;;;;;;15.80;100.00;100727.63;5027852;28;20389;-67
2023/07/31 06:29:31;;;;;;;4.00;2.08;;;;;;;15.79;100.00;100713.38;5029055;28;20057;-66
2023/07/31 06:31:56;;;;;;;5.40;3.10;;;;;;;15.81;100.00;100713.97;5031327;28;20037;-66
2023/07/31 06:34:22;;;;;;;2.50;2.00;;;;;;;15.84;100.00;100715.38;5031994;28;20040;-66
2023/07/31 06:36:47;;;;;;;5.72;2.15;;;;;;;15.80;100.00;100703.44;5031698;28;20041;-67
2023/07/31 06:39:13;;;;;;;5.22;2.38;;;;;;;15.88;100.00;100708.50;5031275;28;20068;-67
2023/07/31 06:41:38;;;;;;;6.25;2.85;;;;;;;15.88;100.00;100711.19;5030992;28;20068;-66
2023/07/31 06:44:04;;;;;;;4.65;2.25;;;;;;;15.89;100.00;100696.66;5031624;28;20030;-68
2023/07/31 06:46:29;;;;;;;3.22;2.40;;;;;;;15.91;100.00;100699.94;5031570;28;20025;-70
2023/07/31 06:48:55;;;;;;;6.18;3.60;;;;;;;15.91;100.00;100687.31;5046426;28;20161;-66
2023/07/31 06:51:20;;;;;;;4.10;2.35;;;;;;;15.93;100.00;100689.78;5029616;28;20079;-67
2023/07/31 06:53:46;;;;;;;6.60;3.08;;;;;;;15.93;100.00;100685.19;5030309;28;20052;-71
2023/07/31 06:56:11;;;;;;;7.97;3.10;;;;;;;15.91;100.00;100683.81;5030391;28;20670;-67
2023/07/31 06:58:37;;;;;;;5.82;3.15;;;;;;;15.92;100.00;100688.94;5029920;28;20495;-67
2023/07/31 07:01:03;;;;;;;5.47;2.95;;;;;;;15.92;100.00;100675.47;5030617;28;20030;-67
2023/07/31 07:03:28;;;;;;;6.28;2.90;;;;;;;15.95;100.00;100677.69;5030361;28;20032;-66
2023/07/31 07:05:53;;;;;;;5.65;3.13;;;;;;;15.97;100.00;100680.16;5030537;28;20417;-67
2023/07/31 07:08:19;;;;;;;7.88;3.58;;;;;;;15.93;100.00;100674.44;5030418;28;20107;-67
2023/07/31 07:10:44;;;;;;;7.03;3.08;;;;;;;15.95;100.00;100683.06;5030647;28;20038;-67
2023/07/31 07:13:09;;;;;;;5.65;3.08;;;;;;;15.94;100.00;100683.31;5013030;28;20523;-66
2023/07/31 07:15:35;;;;;;;5.47;2.67;;;;;;;15.95;100.00;100682.25;5046269;28;20045;-67
2023/07/31 07:18:00;;;;;;;2.90;2.15;;;;;;;15.96;100.00;100670.47;5030082;28;20045;-67
2023/07/31 07:20:25;;;;;;;3.85;2.42;;;;;;;15.99;100.00;100665.41;5030846;28;20029;-67
2023/07/31 07:22:51;;;;;;;3.88;2.35;;;;;;;16.05;100.00;100660.97;5030646;28;20041;-67
2023/07/31 07:25:16;;;;;;;4.93;2.65;;;;;;;16.10;100.00;100674.50;5030984;28;20037;-67
2023/07/31 07:27:42;;;;;;;3.65;2.60;;;;;;;16.12;100.00;100668.91;5031305;28;20030;-67
2023/07/31 07:30:07;;;;;;;7.25;2.92;;;;;;;16.15;100.00;100668.44;5030867;28;20611;-67
2023/07/31 07:32:33;;;;;;;5.72;2.72;;;;;;;16.20;100.00;100663.97;5030915;28;20030;-69
2023/07/31 07:34:58;;;;;;;5.90;2.65;;;;;;;16.25;100.00;100665.13;5030536;28;20029;-67
2023/07/31 07:37:23;;;;;;;4.82;2.35;;;;;;;16.24;100.00;100664.28;5031105;28;20404;-67
2023/07/31 07:39:49;;;;;;;4.93;2.88;;;;;;;16.25;100.00;100668.63;5030924;28;20030;-67
2023/07/31 07:42:14;;;;;;;4.43;2.58;;;;;;;16.23;100.00;100665.34;5029158;28;20033;-69
2023/07/31 07:44:40;;;;;;;3.72;2.58;;;;;;;16.21;100.00;100679.03;5031006;28;20041;-68
2023/07/31 07:47:08;;;;;;;4.38;2.28;;;;;;;16.21;100.00;100675.53;5030901;28;20033;-69
2023/07/31 07:49:34;;;;;;;4.32;3.00;;;;;;;16.19;100.00;100678.47;5030935;28;20119;-66
2023/07/31 07:52:00;;;;;;;4.00;2.80;;;;;;;16.15;100.00;100668.44;5030492;28;20116;-66
2023/07/31 07:54:26;;;;;;;5.18;2.88;;;;;;;16.18;100.00;100674.13;5030380;28;20025;-68
2023/07/31 07:56:51;;;;;;;6.47;3.10;;;;;;;16.18;100.00;100665.25;5029348;28;20483;-69
2023/07/31 07:59:17;;;;;;;5.40;2.70;;;;;;;16.13;100.00;100667.84;5030661;28;20041;-68
2023/07/31 08:01:42;;;;;;;7.03;3.25;;;;;;;16.13;100.00;100670.53;5030225;28;20928;-69
2023/07/31 08:04:08;;;;;;;5.45;3.10;;;;;;;16.14;100.00;100674.88;5030240;28;20029;-68
2023/07/31 08:06:34;;;;;;;8.38;3.58;;;;;;;16.18;100.00;100667.94;5029871;28;20455;-70
2023/07/31 08:09:05;;;;;;;6.35;3.58;;;;;;;16.19;100.00;100665.03;5030484;28;20108;-69
2023/07/31 08:11:30;;;;;;;7.50;4.00;;;;;;;16.21;100.00;100662.09;5029873;28;20041;-69
2023/07/31 08:13:55;;;;;;;6.38;3.55;;;;;;;16.23;100.00;100654.59;5045594;28;20087;-68
2023/07/31 08:16:21;;;;;;;7.43;3.78;;;;;;;16.22;100.00;100652.97;5029782;28;20060;-70
2023/07/31 08:18:46;;;;;;;4.95;3.10;;;;;;;16.21;100.00;100651.31;5044736;28;20525;-75
2023/07/31 08:21:12;;;;;;;12.55;5.00;;;;;;;16.26;100.00;100667.56;5029567;28;20037;-68
2023/07/31 08:23:37;;;;;;;5.95;3.50;;;;;;;16.26;100.00;100666.75;5029679;28;20029;-69
2023/07/31 08:26:02;;;;;;;7.97;3.50;;;;;;;16.26;100.00;100653.31;5028482;28;20041;-69
2023/07/31 08:28:28;;;;;;;6.07;3.90;;;;;;;16.34;100.00;100653.72;5044333;28;20057;-68
2023/07/31 08:30:53;;;;;;;9.65;4.25;;;;;;;16.36;100.00;100657.00;5028568;28;20487;-69
2023/07/31 08:33:18;;;;;;;6.97;3.88;;;;;;;16.36;100.00;100653.50;5027617;28;20040;-68
2023/07/31 08:35:44;;;;;;;10.50;4.25;;;;;;;16.39;100.00;100653.03;5027826;28;20121;-69
2023/07/31 08:38:09;;;;;;;10.25;4.15;;;;;;;16.38;100.00;100659.47;5028709;28;20033;-66
2023/07/31 08:40:40;;;;;;;6.53;3.55;;;;;;;16.37;100.00;100657.81;5029436;28;20021;-66
2023/07/31 08:43:07;;;;;;;10.15;4.18;;;;;;;16.38;100.00;100651.41;5028929;28;20029;-66
2023/07/31 08:45:33;;;;;;;6.10;3.42;;;;;;;16.39;100.00;100659.22;5028417;28;20029;-67
2023/07/31 08:47:59;;;;;;;7.70;4.00;;;;;;;16.37;100.00;100642.50;5028185;28;20045;-66
2023/07/31 08:50:24;;;;;;;10.07;4.28;;;;;;;16.38;100.00;100654.91;5029397;28;20068;-70
2023/07/31 08:52:51;;;;;;;7.35;3.58;;;;;;;16.39;100.00;100655.72;5029553;28;20500;-68
2023/07/31 08:55:17;;;;;;;10.13;4.07;;;;;;;16.36;100.00;100650.81;5028975;28;20037;-68
2023/07/31 08:57:43;;;;;;;8.15;4.38;;;;;;;16.36;100.00;100651.63;5027537;28;20056;-67
2023/07/31 09:00:10;;;;;;;9.75;5.03;;;;;;;16.39;100.00;100661.91;5028777;28;20060;-66
2023/07/31 09:02:57;;;;;;;10.45;5.60;;;;;;;16.36;100.00;100646.25;5028226;28;20136;-67
2023/07/31 09:05:25;;;;;;;9.75;4.03;;;;;;;16.38;100.00;100654.91;5028615;28;20037;-67
2023/07/31 09:07:51;;;;;;;8.48;4.40;;;;;;;16.37;100.00;100653.28;5028200;28;20052;-66
2023/07/31 09:10:16;;;;;;;9.80;4.38;;;;;;;16.37;100.00;100644.34;5027503;28;20436;-66
2023/07/31 09:12:43;;;;;;;12.23;3.92;;;;;;;16.37;100.00;100642.50;5026160;28;20095;-66
2023/07/31 09:15:09;;;;;;;10.45;4.43;;;;;;;16.35;100.00;100646.50;5027721;28;20094;-66
2023/07/31 09:17:37;;;;;;;8.55;4.88;;;;;;;16.38;100.00;100652.22;5028489;28;20466;-67
2023/07/31 09:20:13;;;;;;;10.27;4.53;;;;;;;16.38;100.00;100649.50;5027931;28;20036;-66
2023/07/31 09:22:39;;;;;;;8.23;3.95;;;;;;;16.37;100.00;100650.59;5028199;28;20033;-68
2023/07/31 09:25:17;;;;;;;13.13;6.53;;;;;;;16.38;100.00;100638.75;5028069;28;20033;-69
2023/07/31 09:28:10;;;;;;;10.85;5.07;;;;;;;16.46;100.00;100642.94;5028637;28;20041;-68
2023/07/31 09:30:51;;;;;;;9.43;4.78;;;;;;;16.53;100.00;100642.78;5026972;28;20037;-72
2023/07/31 09:33:19;;;;;;;10.45;4.47;;;;;;;16.55;100.00;100633.41;5027710;28;20152;-73
2023/07/31 09:35:45;;;;;;;8.23;4.43;;;;;;;16.64;100.00;100633.84;5028722;28;20388;-71
2023/07/31 09:38:14;;;;;;;9.30;4.55;;;;;;;16.71;100.00;100629.09;5028922;28;20025;-76
2023/07/31 09:40:42;;;;;;;9.13;4.50;;;;;;;16.77;100.00;100630.03;5028989;28;20038;-77
2023/07/31 09:43:10;;;;;;;9.43;4.80;;;;;;;16.76;100.00;100628.38;5028500;28;20113;-76
2023/07/31 09:45:40;;;;;;;11.35;4.85;;;;;;;16.81;100.00;100631.19;5044023;28;20037;-76
2023/07/31 09:48:10;;;;;;;9.02;5.43;;;;;;;16.82;100.00;100620.19;5028436;28;20087;-76
2023/07/31 09:50:39;;;;;;;9.73;3.67;;;;;;;16.88;100.00;100622.97;5028632;28;20396;-76
2023/07/31 09:53:06;;;;;;;10.63;4.15;;;;;;;16.96;100.00;100630.63;5028207;28;20121;-76
2023/07/31 09:55:32;;;;;;;12.80;4.93;;;;;;;16.92;100.00;100610.63;5028901;28;20465;-78
2023/07/31 09:57:58;;;;;;;9.75;5.45;;;;;;;17.00;100.00;100624.53;5028850;28;20096;-71
2023/07/31 10:00:26;;;;;;;14.60;4.65;;;;;;;17.05;100.00;100629.97;5027977;28;20034;-71
2023/07/31 10:02:52;;;;;;;10.57;4.45;;;;;;;17.05;100.00;100626.47;5027246;28;20389;-73
2023/07/31 10:05:20;;;;;;;8.15;4.40;;;;;;;17.04;100.00;100622.94;5030866;28;20381;-76
2023/07/31 10:07:53;;;;;;;11.75;4.68;;;;;;;17.13;100.00;100626.03;5032431;28;20056;-76
2023/07/31 10:10:21;;;;;;;8.02;3.60;;;;;;;17.22;100.00;100624.59;5032726;28;20171;-76
2023/07/31 10:12:49;;;;;;;12.35;5.28;;;;;;;17.29;100.00;100617.16;5031711;28;20048;-76
2023/07/31 10:15:15;;;;;;;9.88;5.03;;;;;;;17.31;100.00;100612.31;5032520;28;20029;-76
2023/07/31 10:17:41;;;;;;;11.82;4.45;;;;;;;17.35;100.00;100615.34;5032511;28;20031;-76
2023/07/31 10:20:08;;;;;;;8.73;3.95;;;;;;;17.38;100.00;100630.22;5032501;28;20091;-76
2023/07/31 10:22:34;;;;;;;12.40;5.47;;;;;;;17.38;100.00;100630.22;5032247;28;20037;-76
2023/07/31 10:25:00;;;;;;;9.57;4.57;;;;;;;17.30;100.00;100604.50;5032275;28;20029;-76
2023/07/31 10:27:26;;;;;;;9.02;4.13;;;;;;;17.45;100.00;100612.78;5032077;28;20494;-76
2023/07/31 10:29:54;;;;;;;9.88;3.53;;;;;;;17.53;100.00;100604.28;5032404;28;20063;-76
2023/07/31 10:32:20;;;;;;;9.48;4.18;;;;;;;17.65;100.00;100612.25;5046948;28;20030;-76
2023/07/31 10:34:47;;;;;;;9.63;4.10;;;;;;;17.73;100.00;100609.09;5031899;28;20029;-76
2023/07/31 10:37:38;;;;;;;6.68;3.70;;;;;;;17.73;100.00;100611.81;5031770;28;20017;-76
2023/07/31 10:40:06;;;;;;;10.13;4.65;;;;;;;17.67;100.00;100614.69;5031843;28;20025;-76
2023/07/31 10:42:34;;;;;;;6.90;3.83;;;;;;;17.64;100.00;100605.22;5030846;28;20029;-75
2023/07/31 10:45:03;;;;;;;6.28;3.65;;;;;;;17.57;100.00;100601.88;5030065;28;20029;-77
2023/07/31 10:47:29;;;;;;;9.73;3.83;;;;;;;17.64;100.00;100613.31;5030792;28;20034;-74
2023/07/31 10:50:17;;;;;;;9.68;3.92;;;;;;;17.70;100.00;100609.63;5030529;28;20037;-76
2023/07/31 10:52:55;;;;;;;11.48;3.90;;;;;;;17.71;100.00;100613.13;5031520;28;20030;-71
2023/07/31 10:55:29;;;;;;;8.40;4.22;;;;;;;17.81;100.00;100607.09;5031420;28;20028;-77
2023/07/31 10:57:56;;;;;;;12.38;4.18;;;;;;;17.87;100.00;100612.31;5031431;28;20565;-79
2023/07/31 11:00:27;;;;;;;8.43;3.47;;;;;;;17.93;100.00;100602.38;5031070;28;20469;-80
2023/07/31 11:03:00;;;;;;;10.80;3.63;;;;;;;17.98;100.00;100609.72;5031316;28;20025;-78
2023/07/31 11:05:43;;;;;;;12.43;3.42;;;;;;;18.00;100.00;100604.88;5030646;28;20022;-73
2023/07/31 11:08:17;;;;;;;5.35;2.78;;;;;;;18.00;100.00;100599.47;5029891;28;20056;-79
2023/07/31 11:10:44;;;;;;;7.63;4.10;;;;;;;17.99;100.00;100608.66;5030840;28;20116;-74